Time;durP1;ratioP1;P1;durP2;ratioP2;P2;SDS_P1;SDS_P2;PMS_P1;PMS_P2;Temp;Humidity;BMP_temperature;BMP_pressure;BME280_temperature;BME280_humidity;BME280_pressure;Samples;Min_cycle;Max_cycle;Signal;HPM_P1;HPM_P2
2023/10/12 00:02:21;;;;;;;38.00;6.75;;;13.60;99.90;;;;;;6124521;23;20371;-94
2023/10/12 00:04:50;;;;;;;19.75;4.28;;;13.60;99.90;;;;;;6123409;23;20379;-94
2023/10/12 00:07:17;;;;;;;20.25;4.80;;;13.70;99.90;;;;;;6123579;23;20436;-95
2023/10/12 00:10:00;;;;;;;30.38;6.47;;;13.70;99.90;;;;;;6123821;23;20379;-93
2023/10/12 00:12:26;;;;;;;31.10;5.63;;;13.60;99.90;;;;;;6123856;23;20371;-95
2023/10/12 00:14:55;;;;;;;28.63;5.40;;;13.60;99.90;;;;;;6124435;23;20553;-95
2023/10/12 00:17:29;;;;;;;23.80;4.45;;;14.00;99.90;;;;;;6122557;23;20387;-94
2023/10/12 00:19:58;;;;;;;32.88;5.93;;;13.50;99.90;;;;;;6124132;23;20803;-94
2023/10/12 00:22:24;;;;;;;29.42;5.25;;;13.40;99.90;;;;;;6124352;23;20414;-94
2023/10/12 00:24:52;;;;;;;29.05;5.82;;;13.60;99.90;;;;;;6123452;23;20383;-93
2023/10/12 00:27:18;;;;;;;25.63;4.95;;;13.40;99.90;;;;;;6124056;23;20405;-95
2023/10/12 00:29:48;;;;;;;21.27;4.15;;;13.50;99.90;;;;;;6122944;23;20371;-94
2023/10/12 00:32:14;;;;;;;24.92;4.57;;;13.50;99.90;;;;;;6124486;23;20375;-93
2023/10/12 00:34:47;;;;;;;39.17;7.43;;;13.50;99.90;;;;;;6122790;23;20406;-93
2023/10/12 00:37:14;;;;;;;29.13;4.88;;;13.50;99.90;;;;;;6123980;23;20476;-94
2023/10/12 00:39:57;;;;;;;37.05;6.30;;;13.50;99.90;;;;;;6123828;23;20421;-94
2023/10/12 00:42:29;;;;;;;26.15;5.50;;;13.50;99.90;;;;;;6122789;23;20409;-93
2023/10/12 00:44:55;;;;;;;32.53;5.83;;;13.80;99.90;;;;;;6124109;23;20371;-94
2023/10/12 00:47:43;;;;;;;27.80;5.17;;;13.50;99.90;;;;;;6122365;23;20472;-93
2023/10/12 00:50:11;;;;;;;32.95;5.70;;;13.30;99.90;;;;;;6124087;23;20417;-93
2023/10/12 00:53:03;;;;;;;36.35;6.55;;;13.70;99.90;;;;;;6123755;23;20383;-93
2023/10/12 00:55:35;;;;;;;34.35;5.95;;;13.80;99.90;;;;;;6123234;23;20371;-93
2023/10/12 00:58:05;;;;;;;28.73;5.05;;;13.60;99.90;;;;;;6124667;23;20371;-94
2023/10/12 01:00:35;;;;;;;21.83;3.85;;;13.70;99.90;;;;;;6122844;23;20882;-95
2023/10/12 01:03:09;;;;;;;20.15;3.85;;;13.60;99.90;;;;;;6124329;23;20910;-94
2023/10/12 01:05:35;;;;;;;28.88;4.53;;;13.30;99.90;;;;;;6123213;23;20379;-94
2023/10/12 01:08:05;;;;;;;22.38;3.15;;;13.40;99.90;;;;;;6123381;23;20875;-94
2023/10/12 01:10:32;;;;;;;30.15;4.13;;;13.40;99.90;;;;;;6124219;23;20407;-93
2023/10/12 01:13:00;;;;;;;20.70;3.30;;;13.20;99.90;;;;;;6122937;23;20375;-94
2023/10/12 01:15:30;;;;;;;22.52;3.97;;;13.40;99.90;;;;;;6125492;23;20378;-95
2023/10/12 01:17:56;;;;;;;24.70;3.20;;;13.30;99.90;;;;;;6123019;23;20386;-94
2023/10/12 01:20:26;;;;;;;21.02;3.50;;;13.30;99.90;;;;;;6124541;23;20375;-94
2023/10/12 01:22:53;;;;;;;19.40;3.10;;;13.30;99.90;;;;;;6123870;23;20374;-94
2023/10/12 01:25:30;;;;;;;22.02;3.22;;;13.30;99.90;;;;;;6123690;23;20374;-93
2023/10/12 01:28:00;;;;;;;22.33;3.23;;;13.20;99.90;;;;;;6124257;23;20382;-93
2023/10/12 01:30:27;;;;;;;20.77;3.47;;;13.60;99.90;;;;;;6122873;23;20414;-94
2023/10/12 01:32:55;;;;;;;14.40;2.72;;;13.20;99.90;;;;;;6124524;23;20466;-94
2023/10/12 01:35:32;;;;;;;21.20;4.10;;;13.30;99.90;;;;;;6123104;23;20378;-93
2023/10/12 01:38:01;;;;;;;24.52;4.05;;;13.40;99.90;;;;;;6123493;23;21113;-93
2023/10/12 01:43:31;;;;;;;17.10;2.95;;;13.20;99.90;;;;;;6034741;23;20447;-93
2023/10/12 01:46:01;;;;;;;20.55;3.67;;;13.00;99.90;;;;;;6099843;23;20399;-93
2023/10/12 01:48:33;;;;;;;19.65;2.78;;;13.20;99.90;;;;;;6123743;23;20379;-93
2023/10/12 01:51:03;;;;;;;25.88;3.60;;;13.20;99.90;;;;;;6123519;23;20367;-93
2023/10/12 01:53:32;;;;;;;19.13;2.70;;;13.10;99.90;;;;;;6123971;23;20848;-94
2023/10/12 01:56:03;;;;;;;22.17;3.17;;;13.00;99.90;;;;;;6122736;23;20371;-93
2023/10/12 01:58:31;;;;;;;21.20;3.75;;;13.20;99.90;;;;;;6124663;23;20363;-93
2023/10/12 02:01:07;;;;;;;21.52;4.85;;;13.20;99.90;;;;;;6123050;23;20747;-93
2023/10/12 02:03:42;;;;;;;19.42;4.82;;;13.10;99.90;;;;;;6123620;23;20363;-93
2023/10/12 02:06:14;;;;;;;23.10;6.35;;;12.90;99.90;;;;;;6123488;23;20472;-92
2023/10/12 02:08:45;;;;;;;21.53;6.53;;;12.90;99.90;;;;;;6123095;23;20462;-93
2023/10/12 02:13:47;;;;;;;29.30;6.68;;;12.90;99.90;;;;;;6147669;23;20375;-93
2023/10/12 02:16:22;;;;;;;37.60;6.43;;;12.90;99.90;;;;;;6125847;23;20762;-94
2023/10/12 02:18:48;;;;;;;19.20;5.15;;;13.00;99.90;;;;;;6124833;23;20366;-94
2023/10/12 02:21:20;;;;;;;16.95;4.40;;;12.90;99.90;;;;;;6125048;23;20878;-93
2023/10/12 02:31:45;;;;;;;16.52;2.75;;;12.90;99.90;;;;;;6149310;23;20386;-94
2023/10/12 02:34:17;;;;;;;15.20;2.65;;;12.80;99.90;;;;;;6124791;23;20386;-93
2023/10/12 02:39:43;;;;;;;20.48;3.08;;;12.80;99.90;;;;;;6149030;23;20415;-93
2023/10/12 02:47:22;;;;;;;17.70;3.17;;;12.90;99.90;;;;;;6149206;23;21280;-94
2023/10/12 02:52:35;;;;;;;16.70;2.53;;;12.60;99.90;;;;;;6148414;23;20371;-93
2023/10/12 02:55:25;;;;;;;17.98;3.05;;;12.50;99.90;;;;;;6125593;23;20704;-93
2023/10/12 02:57:56;;;;;;;17.83;3.05;;;12.50;99.90;;;;;;6124514;23;20363;-94
2023/10/12 03:00:32;;;;;;;17.57;3.40;;;12.60;99.90;;;;;;6124163;23;20392;-95
2023/10/12 03:03:05;;;;;;;22.17;4.07;;;12.50;99.90;;;;;;6125303;23;20414;-93
2023/10/12 03:05:34;;;;;;;20.02;3.60;;;12.70;99.90;;;;;;6123803;23;20371;-93
2023/10/12 03:08:06;;;;;;;11.95;2.58;;;13.10;99.90;;;;;;6125386;23;20375;-93
2023/10/12 03:10:32;;;;;;;13.30;2.37;;;12.70;99.90;;;;;;6124581;23;20704;-93
2023/10/12 03:13:04;;;;;;;15.68;2.80;;;12.50;99.90;;;;;;6124682;23;20465;-93
2023/10/12 03:15:44;;;;;;;20.65;3.67;;;12.40;99.90;;;;;;6125087;23;20375;-94
2023/10/12 03:18:13;;;;;;;16.10;3.42;;;12.50;99.90;;;;;;6123935;23;20426;-93
2023/10/12 03:20:52;;;;;;;18.55;4.07;;;12.70;99.90;;;;;;6125322;23;20430;-93
2023/10/12 03:23:19;;;;;;;17.50;3.65;;;12.40;99.90;;;;;;6124234;23;20368;-93
2023/10/12 03:25:51;;;;;;;13.27;3.20;;;12.80;99.90;;;;;;6124475;23;20403;-94
2023/10/12 03:28:29;;;;;;;15.30;3.63;;;12.30;99.90;;;;;;6124991;23;20426;-93
2023/10/12 03:31:11;;;;;;;18.33;4.13;;;12.50;99.90;;;;;;6123680;23;20367;-94
2023/10/12 03:33:39;;;;;;;21.48;4.32;;;12.50;99.90;;;;;;6125067;23;20852;-93
2023/10/12 03:36:23;;;;;;;21.17;3.58;;;12.40;99.90;;;;;;6123710;23;20375;-92
2023/10/12 03:47:14;;;;;;;21.30;4.00;;;12.30;99.90;;;;;;6149275;23;20405;-93
2023/10/12 03:49:57;;;;;;;19.83;4.38;;;12.20;99.90;;;;;;6124350;23;20375;-92
2023/10/12 03:52:39;;;;;;;16.55;3.97;;;12.20;99.90;;;;;;6123804;23;20367;-93
2023/10/12 04:08:17;;;;;;;16.88;4.18;;;11.90;99.90;;;;;;6149401;23;20399;-93
2023/10/12 04:13:55;;;;;;;20.65;4.60;;;12.10;99.90;;;;;;6148896;23;20389;-93
2023/10/12 04:19:02;;;;;;;13.77;3.83;;;12.30;99.90;;;;;;6147752;23;20375;-94
2023/10/12 04:21:33;;;;;;;17.73;4.25;;;12.00;99.90;;;;;;6149438;23;20371;-93
2023/10/12 04:26:44;;;;;;;19.20;4.40;;;11.70;99.90;;;;;;6148158;23;20462;-93
2023/10/12 04:29:13;;;;;;;21.92;5.47;;;12.00;99.90;;;;;;6124622;23;20378;-94
2023/10/12 04:34:12;;;;;;;18.45;5.40;;;11.90;99.90;;;;;;6149277;23;20394;-93
2023/10/12 04:41:38;;;;;;;30.63;6.50;;;12.20;99.90;;;;;;6148834;23;20372;-93
2023/10/12 04:47:03;;;;;;;15.30;4.43;;;12.20;99.90;;;;;;6094368;23;20454;-93
2023/10/12 04:52:15;;;;;;;19.17;5.00;;;11.60;99.90;;;;;;6148603;23;20397;-94
2023/10/12 04:57:26;;;;;;;15.00;4.30;;;11.80;99.90;;;;;;6147536;23;20413;-93
2023/10/12 05:00:03;;;;;;;18.55;4.18;;;11.80;99.90;;;;;;6124681;23;20421;-94
2023/10/12 05:02:41;;;;;;;14.45;4.18;;;12.00;99.90;;;;;;6123443;23;20425;-94
2023/10/12 05:07:53;;;;;;;37.35;6.30;;;11.70;99.90;;;;;;6149212;23;20469;-92
2023/10/12 05:10:26;;;;;;;14.07;3.47;;;11.70;99.90;;;;;;6147634;23;20446;-93
2023/10/12 05:12:53;;;;;;;19.90;5.00;;;11.80;99.90;;;;;;6123520;23;20371;-93
2023/10/12 05:15:20;;;;;;;19.98;5.05;;;11.90;99.90;;;;;;6122791;23;20375;-94
2023/10/12 05:17:46;;;;;;;18.95;4.35;;;11.50;99.90;;;;;;6123776;23;20386;-93
2023/10/12 05:20:12;;;;;;;11.48;3.30;;;11.50;99.90;;;;;;6123397;23;20367;-93
2023/10/12 05:22:38;;;;;;;17.70;4.30;;;11.50;99.90;;;;;;6123274;23;21127;-93
2023/10/12 05:25:04;;;;;;;14.03;3.43;;;11.70;99.90;;;;;;6122663;23;20371;-93
2023/10/12 05:27:38;;;;;;;20.80;4.63;;;11.50;99.90;;;;;;6122046;23;20738;-94
2023/10/12 05:30:16;;;;;;;22.20;5.30;;;11.50;99.90;;;;;;6124681;23;20418;-93
2023/10/12 05:32:48;;;;;;;13.53;3.70;;;11.40;99.90;;;;;;6122688;23;20454;-94
2023/10/12 05:35:16;;;;;;;17.20;4.07;;;11.60;99.90;;;;;;6124091;23;20393;-93
2023/10/12 05:37:49;;;;;;;127.63;8.32;;;11.70;99.90;;;;;;6122883;23;20366;-93
2023/10/12 05:40:16;;;;;;;64.07;5.70;;;11.60;99.90;;;;;;6122831;23;20700;-93
2023/10/12 05:42:46;;;;;;;25.90;4.20;;;11.90;99.90;;;;;;6124385;23;20546;-93
2023/10/12 05:45:21;;;;;;;8.20;2.10;;;11.30;99.90;;;;;;6122612;23;20356;-94
2023/10/12 05:47:51;;;;;;;8.70;2.20;;;11.10;99.90;;;;;;6123978;23;20398;-94
2023/10/12 05:50:23;;;;;;;14.48;2.50;;;10.80;99.90;;;;;;6127377;23;20429;-93
2023/10/12 05:52:52;;;;;;;22.27;3.60;;;11.10;99.90;;;;;;6127244;23;20461;-92
2023/10/12 05:55:22;;;;;;;19.98;3.10;;;11.00;99.90;;;;;;6125395;23;20444;-94
2023/10/12 05:57:48;;;;;;;14.48;3.00;;;11.00;99.90;;;;;;6124175;23;20366;-93
2023/10/12 06:02:59;;;;;;;23.17;3.90;;;10.90;99.90;;;;;;6148722;23;20371;-93
2023/10/12 06:05:24;;;;;;;11.77;2.50;;;10.80;99.90;;;;;;6125772;23;20379;-92
2023/10/12 06:07:50;;;;;;;8.30;2.27;;;11.00;99.90;;;;;;6125473;23;20410;-93
2023/10/12 06:10:15;;;;;;;13.13;3.13;;;11.50;99.90;;;;;;6125353;23;20385;-94
2023/10/12 06:12:42;;;;;;;13.50;2.92;;;11.00;99.90;;;;;;6125761;23;20470;-93
2023/10/12 06:15:10;;;;;;;13.25;2.85;;;10.70;99.90;;;;;;6124683;23;20407;-93
2023/10/12 06:17:39;;;;;;;16.63;3.85;;;10.80;99.90;;;;;;6126196;23;20787;-92
2023/10/12 06:20:14;;;;;;;18.35;3.88;;;10.80;99.90;;;;;;6124550;23;20454;-93
2023/10/12 06:22:40;;;;;;;10.63;2.75;;;10.80;99.90;;;;;;6126652;23;20371;-94
2023/10/12 06:25:10;;;;;;;13.77;3.63;;;10.70;99.90;;;;;;6126596;23;20380;-93
2023/10/12 06:27:37;;;;;;;12.00;3.38;;;10.70;99.90;;;;;;6125927;23;20434;-94
2023/10/12 06:30:16;;;;;;;9.98;3.22;;;11.10;99.90;;;;;;6127275;23;20887;-92
2023/10/12 06:32:42;;;;;;;10.90;4.00;;;10.70;99.90;;;;;;6125523;23;20367;-93
2023/10/12 06:37:49;;;;;;;15.93;5.82;;;10.60;99.90;;;;;;6149054;23;20725;-93
2023/10/12 06:45:51;;;;;;;10.13;5.50;;;10.60;99.90;;;;;;6114715;23;20391;-92
2023/10/12 06:51:10;;;;;;;20.33;8.90;;;10.70;99.90;;;;;;6149366;23;20383;-93
2023/10/12 06:53:37;;;;;;;19.10;9.00;;;10.80;99.90;;;;;;6124245;23;20379;-95
2023/10/12 06:59:07;;;;;;;23.05;9.18;;;10.80;99.90;;;;;;6148742;23;20401;-94
2023/10/12 07:01:38;;;;;;;21.38;7.38;;;10.90;99.90;;;;;;6124326;23;20453;-94
2023/10/12 07:04:12;;;;;;;16.85;7.38;;;11.00;99.90;;;;;;6124557;23;20374;-94
2023/10/12 07:07:29;;;;;;;30.35;11.57;;;11.00;99.90;;;;;;6147921;23;20421;-93
2023/10/12 07:09:39;;;;;;;29.27;9.88;;;11.10;99.90;;;;;;6129159;23;20379;-94
2023/10/12 07:12:07;;;;;;;23.38;8.38;;;10.90;99.90;;;;;;6123575;23;20402;-94
2023/10/12 07:14:43;;;;;;;27.65;11.73;;;11.30;99.90;;;;;;6124051;23;20422;-94
2023/10/12 07:17:09;;;;;;;25.13;8.23;;;11.50;99.90;;;;;;6124128;23;20387;-94
2023/10/12 07:19:41;;;;;;;21.65;7.75;;;12.20;99.90;;;;;;6123437;23;20425;-93
2023/10/12 07:22:15;;;;;;;20.70;7.28;;;11.90;99.90;;;;;;6124658;23;20379;-93
2023/10/12 07:24:42;;;;;;;20.15;6.30;;;11.80;99.90;;;;;;6122943;23;20371;-93
2023/10/12 07:27:22;;;;;;;21.08;7.10;;;12.10;99.90;;;;;;6124819;23;20395;-93
2023/10/12 07:30:00;;;;;;;21.17;7.18;;;12.10;99.90;;;;;;6124765;23;20410;-92
2023/10/12 07:33:00;;;;;;;17.30;6.10;;;12.10;99.90;;;;;;6123880;23;20382;-94
2023/10/12 07:35:22;;;;;;;10.55;1.90;;;12.20;99.90;;;;;;6143752;23;20457;-93
2023/10/12 07:37:48;;;;;;;13.10;4.38;;;12.40;99.90;;;;;;6123663;23;20382;-92
2023/10/12 07:40:22;;;;;;;17.05;4.32;;;12.70;99.90;;;;;;6125126;23;20375;-93
2023/10/12 07:42:48;;;;;;;14.60;3.58;;;12.50;99.90;;;;;;6124498;23;20371;-91
2023/10/12 07:45:18;;;;;;;17.53;3.40;;;12.80;99.90;;;;;;6123571;23;20482;-93
2023/10/12 07:47:58;;;;;;;15.93;3.63;;;12.50;99.90;;;;;;6124741;23;20478;-94
2023/10/12 07:50:30;;;;;;;14.80;3.17;;;12.70;99.90;;;;;;6123492;23;20399;-93
2023/10/12 07:53:22;;;;;;;21.20;3.78;;;12.90;99.90;;;;;;6124779;23;20407;-94
2023/10/12 07:55:53;;;;;;;14.13;3.20;;;12.80;99.90;;;;;;6125069;23;20847;-94
2023/10/12 07:58:21;;;;;;;15.05;3.60;;;12.80;99.90;;;;;;6124753;23;20422;-93
2023/10/12 08:00:51;;;;;;;19.60;4.50;;;13.00;99.90;;;;;;6124903;23;20422;-93
2023/10/12 08:03:24;;;;;;;14.80;2.55;;;13.10;99.90;;;;;;6123801;23;20378;-93
2023/10/12 08:06:06;;;;;;;16.65;4.35;;;13.10;99.90;;;;;;6125061;23;20375;-93
2023/10/12 08:08:33;;;;;;;18.73;3.60;;;13.20;99.90;;;;;;6124668;23;20372;-93
2023/10/12 08:11:00;;;;;;;15.35;4.00;;;13.10;99.90;;;;;;6124508;23;20377;-92
2023/10/12 08:13:26;;;;;;;17.95;3.58;;;13.30;99.90;;;;;;6124442;23;20720;-93
2023/10/12 08:31:46;;;;;;;21.65;4.55;;;13.50;99.90;;;;;;6149299;23;20444;-92
2023/10/12 08:34:41;;;;;;;15.82;4.40;;;13.90;99.90;;;;;;6123693;23;20421;-93
2023/10/12 08:39:49;;;;;;;18.83;6.70;;;13.50;99.90;;;;;;6149046;23;20433;-92
2023/10/12 08:45:00;;;;;;;19.85;6.50;;;13.60;99.90;;;;;;6147732;23;20903;-93
2023/10/12 08:52:30;;;;;;;22.02;6.20;;;14.30;99.90;;;;;;6148474;23;20379;-93
2023/10/12 08:55:04;;;;;;;22.80;6.30;;;14.00;99.90;;;;;;6122936;23;20368;-92
2023/10/12 08:57:44;;;;;;;15.25;6.13;;;13.90;99.90;;;;;;6124324;23;20382;-91
2023/10/12 09:00:39;;;;;;;14.57;5.05;;;14.00;99.90;;;;;;6123182;23;20386;-92
2023/10/12 09:05:51;;;;;;;16.55;3.92;;;14.10;99.90;;;;;;6148472;23;20875;-93
2023/10/12 09:11:02;;;;;;;11.45;4.15;;;14.50;99.90;;;;;;6148391;23;20438;-92
2023/10/12 09:13:35;;;;;;;11.82;2.22;;;14.50;99.90;;;;;;6123600;23;20390;-92
2023/10/12 09:16:09;;;;;;;13.68;3.50;;;14.40;99.90;;;;;;6123209;23;20433;-93
2023/10/12 09:18:56;;;;;;;17.00;5.13;;;14.40;99.90;;;;;;6124799;23;20378;-92
2023/10/12 09:23:58;;;;;;;15.55;2.30;;;14.50;99.90;;;;;;6150426;23;20713;-93
2023/10/12 09:26:33;;;;;;;11.32;2.53;;;14.50;99.90;;;;;;6150511;23;20423;-92
2023/10/12 09:36:44;;;;;;;12.38;2.38;;;15.00;99.90;;;;;;6150930;23;20375;-93
2023/10/12 09:39:14;;;;;;;9.77;1.40;;;15.10;99.90;;;;;;6125670;23;20382;-92
2023/10/12 09:41:41;;;;;;;9.10;0.98;;;14.80;99.90;;;;;;6125810;23;20373;-92
2023/10/12 09:44:11;;;;;;;12.90;1.38;;;14.90;99.90;;;;;;6126422;23;20453;-91
2023/10/12 09:46:47;;;;;;;10.95;1.60;;;15.00;99.90;;;;;;6125276;23;20871;-91
2023/10/12 09:49:22;;;;;;;10.60;1.35;;;15.00;99.90;;;;;;6126802;23;20456;-92
2023/10/12 09:51:54;;;;;;;10.88;0.85;;;15.10;99.90;;;;;;6124959;23;20375;-90
2023/10/12 09:54:33;;;;;;;10.45;0.90;;;15.20;99.90;;;;;;6126140;23;20417;-91
2023/10/12 09:57:04;;;;;;;9.55;1.30;;;15.40;99.90;;;;;;6125869;23;20870;-92
2023/10/12 09:59:37;;;;;;;11.60;1.30;;;15.50;99.90;;;;;;6125498;23;20382;-92
2023/10/12 10:02:27;;;;;;;9.20;0.70;;;15.90;99.90;;;;;;6125418;23;20390;-92
2023/10/12 10:05:00;;;;;;;8.63;0.98;;;16.00;99.90;;;;;;6149053;23;20382;-91
2023/10/12 10:07:32;;;;;;;9.70;0.80;;;15.70;99.90;;;;;;6125060;23;20395;-91
2023/10/12 10:10:05;;;;;;;7.72;0.85;;;15.80;99.90;;;;;;6125442;23;20736;-93
2023/10/12 10:12:36;;;;;;;12.25;1.38;;;16.10;99.90;;;;;;6125030;23;20843;-91
2023/10/12 10:15:14;;;;;;;8.73;0.90;;;16.10;99.90;;;;;;6126083;23;20386;-92
2023/10/12 10:17:47;;;;;;;11.30;0.90;;;16.10;99.90;;;;;;6124754;23;20712;-91
2023/10/12 10:23:01;;;;;;;7.67;0.77;;;16.50;99.90;;;;;;6150350;23;20378;-92
2023/10/12 10:25:35;;;;;;;8.70;0.90;;;16.60;99.90;;;;;;6125033;23;20371;-93
2023/10/12 10:28:09;;;;;;;8.70;0.60;;;17.10;99.90;;;;;;6126091;23;20391;-92
2023/10/12 10:30:41;;;;;;;11.93;0.80;;;17.00;99.90;;;;;;6124872;23;20745;-92
2023/10/12 10:33:14;;;;;;;9.23;1.00;;;17.20;99.90;;;;;;6125635;23;20910;-92
2023/10/12 10:41:18;;;;;;;7.97;0.80;;;16.70;99.90;;;;;;6150703;23;20371;-94
2023/10/12 10:43:45;;;;;;;6.97;0.68;;;16.90;99.90;;;;;;6124686;23;20418;-93
2023/10/12 10:46:13;;;;;;;9.57;0.88;;;16.70;99.90;;;;;;6125251;23;20449;-93
2023/10/12 10:48:40;;;;;;;7.73;0.73;;;16.80;99.90;;;;;;6125256;23;20375;-92
2023/10/12 10:51:18;;;;;;;7.63;0.70;;;16.50;99.90;;;;;;6124672;23;21115;-93
2023/10/12 10:53:51;;;;;;;9.00;0.90;;;16.40;99.90;;;;;;6125872;23;20375;-92
2023/10/12 10:56:32;;;;;;;8.93;0.90;;;16.60;99.90;;;;;;6124619;23;20371;-94
2023/10/12 10:59:00;;;;;;;8.95;0.90;;;16.70;99.90;;;;;;6126043;23;20429;-93
2023/10/12 11:01:26;;;;;;;8.13;0.60;;;16.70;99.90;;;;;;6125489;23;20414;-92
2023/10/12 11:03:53;;;;;;;9.70;0.80;;;16.40;99.90;;;;;;6125373;23;20371;-93
2023/10/12 11:06:21;;;;;;;7.30;0.80;;;16.50;99.90;;;;;;6125496;23;20776;-92
2023/10/12 11:09:06;;;;;;;10.35;0.90;;;16.40;99.90;;;;;;6125145;23;20462;-93
2023/10/12 11:11:38;;;;;;;10.23;0.70;;;16.40;99.90;;;;;;6125626;23;20380;-93
2023/10/12 11:14:10;;;;;;;10.52;1.00;;;16.60;99.90;;;;;;6124701;23;20382;-92
2023/10/12 11:16:43;;;;;;;10.77;0.83;;;16.60;99.90;;;;;;6124878;23;20396;-93
2023/10/12 11:19:09;;;;;;;8.15;1.00;;;16.70;99.90;;;;;;6125148;23;20387;-92
2023/10/12 11:21:35;;;;;;;9.18;0.80;;;16.70;99.90;;;;;;6124363;23;20367;-92
2023/10/12 11:24:09;;;;;;;8.23;0.60;;;16.70;99.90;;;;;;6125566;23;20378;-92
2023/10/12 11:26:52;;;;;;;6.85;0.77;;;16.80;99.90;;;;;;6124516;23;20399;-91
2023/10/12 11:29:18;;;;;;;7.65;0.80;;;17.00;99.90;;;;;;6125045;23;20399;-92
2023/10/12 11:32:03;;;;;;;10.52;0.90;;;17.40;99.90;;;;;;6124862;23;20376;-91
2023/10/12 11:34:33;;;;;;;8.05;0.50;;;17.30;99.90;;;;;;6124281;23;20397;-92
2023/10/12 11:36:59;;;;;;;7.93;0.60;;;17.40;99.90;;;;;;6125441;23;20375;-92
2023/10/12 11:39:28;;;;;;;6.40;0.40;;;17.20;99.90;;;;;;6124252;23;20378;-92
2023/10/12 11:42:07;;;;;;;8.90;1.10;;;17.20;99.90;;;;;;6125410;23;20371;-91
2023/10/12 11:44:33;;;;;;;9.07;1.00;;;17.10;99.90;;;;;;6124616;23;20457;-91
2023/10/12 11:47:00;;;;;;;6.60;0.60;;;17.10;99.90;;;;;;6123566;23;20408;-91
2023/10/12 11:49:26;;;;;;;8.88;1.00;;;16.90;99.90;;;;;;6124809;23;20371;-92
2023/10/12 11:51:57;;;;;;;7.97;0.90;;;17.40;98.50;;;;;;6123780;23;20933;-92
2023/10/12 11:54:32;;;;;;;9.70;1.00;;;17.20;99.20;;;;;;6125114;23;20367;-92
2023/10/12 11:56:58;;;;;;;9.65;0.80;;;17.20;99.90;;;;;;6124479;23;20449;-91
2023/10/12 11:59:31;;;;;;;8.77;0.80;;;17.20;99.90;;;;;;6124516;23;20454;-92
2023/10/12 12:02:03;;;;;;;11.47;1.00;;;17.40;99.90;;;;;;6124863;23;20375;-91
2023/10/12 12:04:38;;;;;;;9.73;0.65;;;17.00;99.90;;;;;;6123835;23;20378;-92
2023/10/12 12:07:10;;;;;;;6.40;0.80;;;17.40;99.90;;;;;;6124921;23;20402;-91
2023/10/12 12:09:39;;;;;;;8.65;0.63;;;17.10;99.90;;;;;;6123745;23;20371;-92
2023/10/12 12:12:12;;;;;;;9.67;0.93;;;17.30;99.90;;;;;;6124985;23;20417;-92
2023/10/12 12:14:39;;;;;;;7.63;0.70;;;17.10;99.90;;;;;;6124417;23;20697;-89
2023/10/12 12:17:04;;;;;;;7.45;0.65;;;17.30;99.90;;;;;;6122308;23;20933;-92
2023/10/12 12:19:33;;;;;;;7.87;0.80;;;17.20;99.90;;;;;;6124337;23;20465;-92
2023/10/12 12:21:59;;;;;;;7.55;0.98;;;17.40;99.90;;;;;;6123518;23;20787;-92
2023/10/12 12:24:27;;;;;;;6.63;0.90;;;17.20;99.90;;;;;;6124360;23;20843;-92
2023/10/12 12:26:53;;;;;;;6.75;0.65;;;17.10;99.90;;;;;;6123431;23;20430;-91
2023/10/12 12:29:25;;;;;;;8.43;0.67;;;17.00;99.90;;;;;;6124437;23;20378;-91
2023/10/12 12:31:51;;;;;;;7.78;0.80;;;17.10;99.90;;;;;;6123909;23;20763;-91
2023/10/12 12:37:05;;;;;;;6.90;0.70;;;17.20;99.90;;;;;;6149103;23;20375;-91
2023/10/12 12:39:33;;;;;;;10.07;0.80;;;16.90;99.90;;;;;;6123380;23;20386;-92
2023/10/12 12:41:59;;;;;;;9.68;0.70;;;16.90;99.90;;;;;;6124784;23;20367;-92
2023/10/12 12:44:24;;;;;;;8.00;0.60;;;17.00;99.90;;;;;;6123635;23;20847;-90
2023/10/12 12:46:50;;;;;;;9.80;0.80;;;17.20;99.90;;;;;;6124109;23;20879;-91
2023/10/12 12:49:15;;;;;;;9.20;0.63;;;16.90;99.90;;;;;;6124074;23;20450;-92
2023/10/12 12:51:41;;;;;;;8.90;0.67;;;16.90;99.90;;;;;;6123654;23;20421;-92
2023/10/12 12:54:07;;;;;;;9.27;0.70;;;16.90;99.90;;;;;;6124365;23;20375;-92
2023/10/12 12:56:32;;;;;;;8.25;0.57;;;16.90;99.90;;;;;;6123384;23;20913;-92
2023/10/12 12:58:59;;;;;;;9.00;0.87;;;17.10;99.90;;;;;;6124647;23;20382;-92
2023/10/12 13:01:27;;;;;;;5.97;0.50;;;17.20;99.90;;;;;;6123290;23;20902;-91
2023/10/12 13:03:56;;;;;;;7.30;0.68;;;16.90;99.90;;;;;;6124727;23;20453;-92
2023/10/12 13:06:22;;;;;;;7.85;0.70;;;17.10;99.90;;;;;;6123709;23;20736;-91
2023/10/12 13:08:48;;;;;;;6.95;0.80;;;16.90;99.90;;;;;;6123653;23;20371;-92
2023/10/12 13:11:18;;;;;;;6.90;0.52;;;16.80;99.90;;;;;;6124275;23;20442;-89
2023/10/12 13:13:44;;;;;;;7.18;0.75;;;16.60;99.90;;;;;;6123262;23;20391;-94
2023/10/12 13:16:12;;;;;;;6.90;0.60;;;16.40;99.90;;;;;;6124108;23;20462;-91
2023/10/12 13:18:46;;;;;;;7.88;0.70;;;16.70;99.90;;;;;;6122601;23;20813;-92
2023/10/12 13:21:14;;;;;;;6.73;0.50;;;16.90;99.90;;;;;;6124480;23;20375;-92
2023/10/12 13:23:40;;;;;;;10.18;0.88;;;16.80;99.90;;;;;;6173202;23;20407;-91
2023/10/12 13:26:12;;;;;;;7.47;1.00;;;16.90;99.90;;;;;;6123602;23;20382;-91
2023/10/12 13:28:38;;;;;;;7.90;0.65;;;17.10;99.90;;;;;;6124216;23;20950;-90
2023/10/12 13:31:05;;;;;;;5.55;0.60;;;16.80;99.90;;;;;;6123178;23;20381;-92
2023/10/12 13:33:31;;;;;;;7.20;0.82;;;17.00;99.90;;;;;;6124056;23;20411;-90
2023/10/12 13:35:58;;;;;;;8.63;0.60;;;16.70;99.90;;;;;;6122980;23;20402;-91
2023/10/12 13:38:29;;;;;;;6.07;0.52;;;16.80;99.90;;;;;;6124214;23;20383;-91
2023/10/12 13:40:54;;;;;;;8.23;0.70;;;16.50;99.90;;;;;;6123401;23;20413;-92
2023/10/12 13:43:26;;;;;;;7.43;0.50;;;16.80;99.90;;;;;;6122420;23;20390;-93
2023/10/12 13:45:55;;;;;;;7.55;0.68;;;16.20;99.90;;;;;;6123028;23;20421;-91
2023/10/12 13:48:28;;;;;;;6.95;0.73;;;16.60;99.90;;;;;;6122389;23;20407;-92
2023/10/12 13:51:04;;;;;;;7.15;0.65;;;16.10;99.90;;;;;;6123806;23;20383;-93
2023/10/12 13:53:36;;;;;;;8.75;0.75;;;15.90;99.90;;;;;;6122803;23;20378;-91
2023/10/12 13:56:08;;;;;;;7.95;0.70;;;16.00;99.90;;;;;;6123001;23;20785;-93
2023/10/12 13:58:35;;;;;;;8.10;0.90;;;16.20;99.90;;;;;;6123675;23;20375;-92
2023/10/12 14:01:13;;;;;;;7.90;0.50;;;16.30;99.90;;;;;;6122488;23;20754;-93
2023/10/12 14:03:41;;;;;;;9.60;0.80;;;16.30;99.90;;;;;;6124011;23;20688;-92
2023/10/12 14:06:07;;;;;;;8.82;0.77;;;16.10;99.90;;;;;;6122523;23;20383;-91
2023/10/12 14:08:35;;;;;;;5.68;0.90;;;16.20;99.90;;;;;;6123710;23;20386;-92
2023/10/12 14:11:04;;;;;;;8.13;0.80;;;16.20;99.90;;;;;;6124589;23;20708;-91
2023/10/12 14:13:31;;;;;;;11.60;1.30;;;16.00;99.90;;;;;;6125582;23;20775;-93
2023/10/12 14:15:57;;;;;;;7.18;0.85;;;15.90;99.90;;;;;;6124744;23;20371;-91
2023/10/12 14:18:23;;;;;;;7.28;0.85;;;15.90;99.90;;;;;;6124228;23;20974;-92
2023/10/12 14:20:51;;;;;;;9.70;0.80;;;16.30;99.90;;;;;;6125834;23;20411;-91
2023/10/12 14:23:17;;;;;;;9.30;0.60;;;15.90;99.90;;;;;;6124430;23;20450;-91
2023/10/12 14:25:47;;;;;;;11.95;1.00;;;15.60;99.90;;;;;;6125662;23;20405;-90
2023/10/12 14:28:17;;;;;;;9.23;1.05;;;15.60;99.90;;;;;;6124866;23;20399;-90
2023/10/12 14:30:50;;;;;;;10.45;0.80;;;15.40;99.90;;;;;;6124815;23;20415;-91
2023/10/12 14:33:18;;;;;;;9.65;1.15;;;15.20;99.90;;;;;;6125337;23;20375;-89
2023/10/12 14:35:45;;;;;;;11.05;1.13;;;15.30;99.90;;;;;;6124855;23;20904;-91
2023/10/12 14:38:14;;;;;;;11.75;1.10;;;15.10;99.90;;;;;;6125566;23;20371;-91
2023/10/12 14:40:42;;;;;;;9.05;1.17;;;14.80;99.90;;;;;;6123727;23;20425;-93
2023/10/12 14:43:16;;;;;;;12.50;1.00;;;14.90;99.90;;;;;;6125149;23;20375;-93
2023/10/12 14:45:55;;;;;;;9.68;1.30;;;14.70;99.90;;;;;;6124259;23;20364;-93
2023/10/12 14:48:22;;;;;;;7.70;0.70;;;14.40;99.90;;;;;;6124473;23;20534;-93
2023/10/12 14:53:36;;;;;;;12.02;1.17;;;14.10;99.90;;;;;;6148554;23;20437;-94
2023/10/12 14:56:03;;;;;;;12.98;1.48;;;14.20;99.90;;;;;;6125121;23;20375;-94
2023/10/12 14:58:30;;;;;;;12.63;1.40;;;14.10;99.90;;;;;;6123981;23;20407;-93
2023/10/12 15:00:56;;;;;;;10.53;1.00;;;13.90;99.90;;;;;;6124941;23;20454;-93
2023/10/12 15:03:22;;;;;;;13.07;1.20;;;13.90;99.90;;;;;;6124302;23;20433;-93
2023/10/12 15:05:53;;;;;;;10.32;1.10;;;14.20;99.90;;;;;;6123234;23;20462;-93
2023/10/12 15:08:23;;;;;;;10.60;1.00;;;14.00;99.90;;;;;;6124980;23;20462;-94
2023/10/12 15:10:49;;;;;;;11.45;1.30;;;14.20;99.90;;;;;;6123831;23;20437;-93
2023/10/12 15:13:16;;;;;;;13.25;1.17;;;13.90;99.90;;;;;;6125248;23;20442;-93
2023/10/12 15:15:47;;;;;;;10.43;1.30;;;13.70;99.90;;;;;;6123666;23;20367;-92
2023/10/12 15:18:13;;;;;;;11.23;1.20;;;13.60;99.90;;;;;;6124736;23;20375;-93
2023/10/12 15:20:39;;;;;;;11.77;1.60;;;13.80;99.90;;;;;;6125352;23;20479;-93
2023/10/12 15:23:06;;;;;;;12.63;1.87;;;13.70;99.90;;;;;;6131601;23;20379;-93
2023/10/12 15:25:34;;;;;;;12.97;2.27;;;13.80;99.90;;;;;;6132402;23;20368;-95